Time;durP1;ratioP1;P1;durP2;ratioP2;P2;SDS_P1;SDS_P2;PMS_P1;PMS_P2;Temp;Humidity;BMP_temperature;BMP_pressure;BME280_temperature;BME280_humidity;BME280_pressure;Samples;Min_cycle;Max_cycle;Signal;HPM_P1;HPM_P2
2022/12/30 00:01:13;;;;;;;4.47;4.28;;;;;;;;;;5054023;28;20395;-87
2022/12/30 00:03:40;;;;;;;5.25;3.80;;;;;;;;;;5054235;28;20048;-86
2022/12/30 00:06:14;;;;;;;3.38;3.17;;;;;;;;;;5053918;28;20053;-87
2022/12/30 00:08:46;;;;;;;3.10;3.00;;;;;;;;;;5054149;28;20102;-87
2022/12/30 00:11:13;;;;;;;3.15;2.95;;;;;;;;;;5054139;28;20053;-88
2022/12/30 00:33:09;;;;;;;2.42;2.33;;;;;;;;;;5048655;28;20099;-87
2022/12/30 00:35:36;;;;;;;4.15;3.78;;;;;;;;;;5053662;28;20076;-86
2022/12/30 00:38:02;;;;;;;2.90;2.00;;;;;;;;;;5053407;28;20091;-87
2022/12/30 00:40:29;;;;;;;1.52;1.42;;;;;;;;;;5053094;28;20576;-87
2022/12/30 00:43:09;;;;;;;1.42;1.33;;;;;;;;;;5053259;28;20049;-87
2022/12/30 00:45:37;;;;;;;2.80;2.70;;;;;;;;;;5053725;28;20060;-87
2022/12/30 00:56:18;;;;;;;1.58;1.50;;;;;;;;;;5073030;28;19953;-87
2022/12/30 00:58:44;;;;;;;3.30;3.10;;;;;;;;;;5073131;28;20048;-87
2022/12/30 01:01:11;;;;;;;4.85;4.63;;;;;;;;;;5073131;28;20044;-87
2022/12/30 01:03:39;;;;;;;3.80;3.50;;;;;;;;;;5068310;28;20040;-87
2022/12/30 01:06:06;;;;;;;5.32;4.60;;;;;;;;;;5052835;28;20041;-87
2022/12/30 01:08:33;;;;;;;1.67;1.58;;;;;;;;;;5045350;28;20129;-87
2022/12/30 01:10:59;;;;;;;4.80;4.05;;;;;;;;;;5032676;28;20049;-87
2022/12/30 01:13:26;;;;;;;4.43;4.13;;;;;;;;;;5033163;28;20106;-87
2022/12/30 01:15:52;;;;;;;6.30;3.50;;;;;;;;;;5033002;28;20053;-87
2022/12/30 01:18:19;;;;;;;2.25;2.15;;;;;;;;;;5032682;28;20487;-87
2022/12/30 01:20:46;;;;;;;2.55;2.42;;;;;;;;;;5046550;28;20036;-87
2022/12/30 01:23:13;;;;;;;2.92;2.08;;;;;;;;;;5073168;28;20109;-87
2022/12/30 01:25:40;;;;;;;1.98;1.88;;;;;;;;;;5072464;28;20083;-87
2022/12/30 01:28:06;;;;;;;3.17;2.95;;;;;;;;;;5072742;28;20040;-87
2022/12/30 01:30:33;;;;;;;2.35;2.10;;;;;;;;;;5072699;28;20078;-87
2022/12/30 01:32:59;;;;;;;3.50;3.20;;;;;;;;;;5072606;28;20461;-87
2022/12/30 01:35:26;;;;;;;2.72;2.58;;;;;;;;;;5072651;28;20117;-87
2022/12/30 01:37:54;;;;;;;2.50;2.40;;;;;;;;;;5071779;28;20098;-87
2022/12/30 01:40:20;;;;;;;2.30;2.20;;;;;;;;;;5072603;28;20106;-87
2022/12/30 01:42:47;;;;;;;3.33;2.97;;;;;;;;;;5072604;28;20098;-87
2022/12/30 01:45:17;;;;;;;3.40;3.10;;;;;;;;;;5072205;28;20056;-87
2022/12/30 01:47:44;;;;;;;3.65;3.40;;;;;;;;;;5072559;28;20049;-87
2022/12/30 01:50:26;;;;;;;3.15;2.95;;;;;;;;;;5072197;28;20102;-87
2022/12/30 01:52:56;;;;;;;2.35;2.22;;;;;;;;;;5068747;28;20514;-87
2022/12/30 01:55:25;;;;;;;1.73;1.63;;;;;;;;;;5065094;28;20107;-87
2022/12/30 01:57:53;;;;;;;2.50;2.40;;;;;;;;;;5070195;28;20087;-87
2022/12/30 02:00:19;;;;;;;2.72;2.53;;;;;;;;;;5072426;28;20102;-87
2022/12/30 02:02:46;;;;;;;1.95;1.85;;;;;;;;;;5072407;28;20044;-87
2022/12/30 02:05:13;;;;;;;2.10;2.00;;;;;;;;;;5072053;28;20044;-87
2022/12/30 02:07:41;;;;;;;3.03;2.72;;;;;;;;;;5072254;28;20048;-87
2022/12/30 02:10:09;;;;;;;1.52;1.40;;;;;;;;;;5071825;28;20555;-87
2022/12/30 02:12:36;;;;;;;4.78;4.40;;;;;;;;;;5072057;28;20049;-87
2022/12/30 02:15:04;;;;;;;3.80;3.17;;;;;;;;;;5064530;28;20115;-88
2022/12/30 02:17:37;;;;;;;3.30;2.67;;;;;;;;;;5055036;28;20056;-87
2022/12/30 02:20:24;;;;;;;3.03;2.88;;;;;;;;;;5055968;28;20053;-87
2022/12/30 02:22:59;;;;;;;2.03;1.92;;;;;;;;;;5056148;28;20110;-87
2022/12/30 02:25:44;;;;;;;2.47;2.03;;;;;;;;;;5056351;28;20052;-88
2022/12/30 02:28:36;;;;;;;1.88;1.77;;;;;;;;;;5056068;28;20102;-87
2022/12/30 02:31:24;;;;;;;2.60;2.08;;;;;;;;;;5053247;28;20491;-87
2022/12/30 02:33:55;;;;;;;2.60;2.40;;;;;;;;;;5029468;28;20058;-87
2022/12/30 02:36:25;;;;;;;1.63;1.17;;;;;;;;;;5036038;28;20049;-87
2022/12/30 02:38:55;;;;;;;2.60;1.98;;;;;;;;;;5035708;28;20099;-86
2022/12/30 02:47:01;;;;;;;3.50;2.78;;;;;;;;;;5035581;28;20080;-86
2022/12/30 02:49:29;;;;;;;1.55;1.40;;;;;;;;;;5062795;28;20052;-86
2022/12/30 02:54:40;;;;;;;4.15;3.75;;;;;;;;;;5075686;28;20102;-86
2022/12/30 02:57:21;;;;;;;2.20;2.10;;;;;;;;;;5075487;28;20102;-86
2022/12/30 03:05:25;;;;;;;2.13;2.05;;;;;;;;;;5060269;28;20141;-87
2022/12/30 03:07:57;;;;;;;3.70;2.40;;;;;;;;;;5055283;28;20049;-87
2022/12/30 03:13:16;;;;;;;1.30;1.20;;;;;;;;;;5054971;28;20502;-87
2022/12/30 03:15:45;;;;;;;4.53;4.13;;;;;;;;;;5054748;28;20060;-87
2022/12/30 03:18:12;;;;;;;2.30;2.17;;;;;;;;;;5054826;28;20506;-87
2022/12/30 03:20:40;;;;;;;3.40;2.15;;;;;;;;;;5057152;28;20044;-87
2022/12/30 03:28:36;;;;;;;;;;;;;;;;;;5054857;28;20186;-86
2022/12/30 03:31:03;;;;;;;1.40;1.30;;;;;;;;;;5054538;28;20435;-86
2022/12/30 03:33:30;;;;;;;3.20;2.60;;;;;;;;;;5054761;28;20065;-87
2022/12/30 03:36:01;;;;;;;1.45;1.35;;;;;;;;;;5054608;28;20094;-87
2022/12/30 03:38:31;;;;;;;2.45;2.25;;;;;;;;;;5054678;28;20053;-87
2022/12/30 03:40:58;;;;;;;2.78;2.25;;;;;;;;;;5068993;28;20053;-87
2022/12/30 03:43:25;;;;;;;1.38;1.35;;;;;;;;;;5074322;28;20479;-86
2022/12/30 03:45:52;;;;;;;1.90;1.80;;;;;;;;;;5074215;28;20482;-86
2022/12/30 03:48:18;;;;;;;1.75;1.55;;;;;;;;;;5074461;28;20048;-86
2022/12/30 03:50:45;;;;;;;6.32;3.00;;;;;;;;;;5074206;28;20486;-87
2022/12/30 03:53:13;;;;;;;2.65;2.53;;;;;;;;;;5074102;28;20049;-87
2022/12/30 03:55:40;;;;;;;2.15;2.05;;;;;;;;;;5071312;28;20110;-87
2022/12/30 03:58:06;;;;;;;2.03;1.92;;;;;;;;;;5035280;28;20054;-87
2022/12/30 04:00:33;;;;;;;2.95;2.40;;;;;;;;;;5034043;28;20092;-87
2022/12/30 04:02:59;;;;;;;2.42;2.33;;;;;;;;;;5034671;28;20380;-86
2022/12/30 04:05:26;;;;;;;2.55;2.35;;;;;;;;;;5034313;28;20095;-86
2022/12/30 04:07:52;;;;;;;2.22;1.95;;;;;;;;;;5033656;28;20061;-86
2022/12/30 04:10:20;;;;;;;1.20;1.17;;;;;;;;;;5033866;28;20495;-86
2022/12/30 04:12:46;;;;;;;1.15;1.15;;;;;;;;;;5042365;28;20074;-86
2022/12/30 04:15:13;;;;;;;2.28;2.13;;;;;;;;;;5053613;28;20893;-86
2022/12/30 04:17:39;;;;;;;3.67;3.47;;;;;;;;;;5054112;28;20123;-86
2022/12/30 04:20:06;;;;;;;2.15;2.05;;;;;;;;;;5054250;28;20098;-86
2022/12/30 04:22:33;;;;;;;2.72;1.63;;;;;;;;;;5053826;28;20402;-87
2022/12/30 04:24:59;;;;;;;1.35;1.35;;;;;;;;;;5053878;28;20060;-87
2022/12/30 04:27:27;;;;;;;1.35;1.33;;;;;;;;;;5053969;28;20049;-86
2022/12/30 04:29:54;;;;;;;2.97;2.78;;;;;;;;;;5046210;28;20131;-86
2022/12/30 04:32:20;;;;;;;2.25;2.13;;;;;;;;;;5033798;28;20115;-87
2022/12/30 04:34:47;;;;;;;3.38;3.17;;;;;;;;;;5033757;28;20049;-87
2022/12/30 04:37:14;;;;;;;4.47;4.18;;;;;;;;;;5033685;28;20049;-86
2022/12/30 04:39:40;;;;;;;2.40;2.22;;;;;;;;;;5032369;28;20463;-86
2022/12/30 04:42:07;;;;;;;2.47;2.38;;;;;;;;;;5033627;28;20053;-86
2022/12/30 04:44:34;;;;;;;3.92;3.38;;;;;;;;;;5033023;28;20049;-86
2022/12/30 04:47:01;;;;;;;1.65;1.55;;;;;;;;;;5044200;28;20049;-87
2022/12/30 04:49:27;;;;;;;1.77;1.58;;;;;;;;;;5069666;28;20091;-86
2022/12/30 04:51:54;;;;;;;2.15;2.05;;;;;;;;;;5052989;28;20110;-86
2022/12/30 04:54:20;;;;;;;2.03;1.92;;;;;;;;;;5053230;28;20049;-86
2022/12/30 04:56:47;;;;;;;7.43;4.45;;;;;;;;;;5052726;28;20090;-86
2022/12/30 04:59:13;;;;;;;1.70;1.60;;;;;;;;;;5052830;28;20111;-86
2022/12/30 05:01:41;;;;;;;3.08;2.90;;;;;;;;;;5053172;28;20057;-86
2022/12/30 05:04:07;;;;;;;2.20;2.10;;;;;;;;;;5037229;28;20107;-86
2022/12/30 05:06:34;;;;;;;3.08;2.92;;;;;;;;;;5033256;28;20049;-86
2022/12/30 05:09:00;;;;;;;3.83;3.63;;;;;;;;;;5032744;28;20053;-86
2022/12/30 05:11:27;;;;;;;3.60;3.40;;;;;;;;;;5032886;28;20074;-86
2022/12/30 05:13:53;;;;;;;1.58;1.55;;;;;;;;;;5033063;28;20054;-86
2022/12/30 05:16:20;;;;;;;3.03;2.83;;;;;;;;;;5032645;28;20061;-86
2022/12/30 05:18:48;;;;;;;2.85;2.63;;;;;;;;;;5033001;28;20168;-87
2022/12/30 05:21:14;;;;;;;2.42;2.33;;;;;;;;;;5053224;28;20106;-87
2022/12/30 05:26:24;;;;;;;;;;;;;;;;;;5053136;28;20055;-87
2022/12/30 05:28:51;;;;;;;2.63;2.45;;;;;;;;;;5052410;28;19924;-86
2022/12/30 05:31:18;;;;;;;2.22;2.10;;;;;;;;;;5052708;28;20469;-85
2022/12/30 05:33:45;;;;;;;3.45;3.30;;;;;;;;;;5052137;28;20057;-86
2022/12/30 05:36:14;;;;;;;4.25;3.97;;;;;;;;;;5054025;28;20091;-86
2022/12/30 05:38:40;;;;;;;1.75;1.65;;;;;;;;;;5052272;28;20099;-86
2022/12/30 05:41:07;;;;;;;4.63;3.97;;;;;;;;;;5052096;28;20057;-87
2022/12/30 05:43:34;;;;;;;4.40;2.35;;;;;;;;;;5051517;28;20499;-87
2022/12/30 05:46:00;;;;;;;3.63;2.85;;;;;;;;;;5039296;28;20123;-86
2022/12/30 05:48:27;;;;;;;1.90;1.80;;;;;;;;;;5031734;28;20046;-87
2022/12/30 05:50:53;;;;;;;1.88;1.75;;;;;;;;;;5032663;28;21074;-86
2022/12/30 05:53:21;;;;;;;3.38;2.95;;;;;;;;;;5069501;28;20048;-86
2022/12/30 05:55:47;;;;;;;4.82;4.47;;;;;;;;;;5071703;28;20053;-86
2022/12/30 05:58:14;;;;;;;2.95;2.42;;;;;;;;;;5072093;28;20102;-86
2022/12/30 06:00:40;;;;;;;2.78;2.58;;;;;;;;;;5072031;28;20174;-87
2022/12/30 06:03:07;;;;;;;2.67;1.70;;;;;;;;;;5071680;28;20048;-86
2022/12/30 06:05:33;;;;;;;2.15;1.95;;;;;;;;;;5071957;28;20048;-87
2022/12/30 06:08:00;;;;;;;2.72;2.53;;;;;;;;;;5072248;28;20052;-86
2022/12/30 06:10:28;;;;;;;0.90;0.90;;;;;;;;;;5036386;28;20487;-86
2022/12/30 06:12:54;;;;;;;2.33;2.13;;;;;;;;;;5032126;28;20057;-86
2022/12/30 06:15:21;;;;;;;3.05;2.88;;;;;;;;;;5031804;28;20057;-86
2022/12/30 06:17:47;;;;;;;2.75;2.10;;;;;;;;;;5032102;28;20553;-87
2022/12/30 06:20:14;;;;;;;3.85;3.22;;;;;;;;;;5032162;28;20079;-86
2022/12/30 06:22:40;;;;;;;3.80;3.50;;;;;;;;;;5031904;28;20461;-87
2022/12/30 06:25:07;;;;;;;2.63;2.50;;;;;;;;;;5039438;28;20041;-85
2022/12/30 06:27:35;;;;;;;2.03;1.92;;;;;;;;;;5032039;28;20056;-85
2022/12/30 06:30:02;;;;;;;2.30;2.20;;;;;;;;;;5033719;28;20103;-86
2022/12/30 06:32:28;;;;;;;2.30;2.20;;;;;;;;;;5051515;28;20110;-86
2022/12/30 06:34:55;;;;;;;2.95;2.75;;;;;;;;;;5051581;28;20592;-85
2022/12/30 06:37:21;;;;;;;3.22;3.03;;;;;;;;;;5052115;28;20045;-86
2022/12/30 06:39:48;;;;;;;2.85;2.65;;;;;;;;;;5050837;28;20045;-86
2022/12/30 06:42:14;;;;;;;2.67;2.47;;;;;;;;;;5054686;28;20521;-87
2022/12/30 06:44:42;;;;;;;2.35;2.25;;;;;;;;;;5051258;28;20480;-87
2022/12/30 06:47:08;;;;;;;6.32;5.68;;;;;;;;;;5067424;28;20048;-87
2022/12/30 06:49:35;;;;;;;4.50;4.20;;;;;;;;;;5071413;28;20106;-87
2022/12/30 06:52:01;;;;;;;4.20;3.90;;;;;;;;;;5070950;28;20103;-87
2022/12/30 06:54:28;;;;;;;2.83;2.72;;;;;;;;;;5071357;28;20456;-87
2022/12/30 06:56:54;;;;;;;5.72;5.20;;;;;;;;;;5062782;28;20049;-87
2022/12/30 06:59:21;;;;;;;3.42;3.22;;;;;;;;;;5051075;28;20049;-88
2022/12/30 07:01:49;;;;;;;3.22;3.03;;;;;;;;;;5055195;28;20044;-87
2022/12/30 07:04:15;;;;;;;5.38;4.90;;;;;;;;;;5057178;28;20049;-88
2022/12/30 07:06:41;;;;;;;3.72;3.58;;;;;;;;;;5035012;28;20041;-88
2022/12/30 07:09:09;;;;;;;2.70;2.50;;;;;;;;;;5035050;28;20104;-88
2022/12/30 07:11:35;;;;;;;2.55;2.38;;;;;;;;;;5035357;28;20140;-88
2022/12/30 07:14:02;;;;;;;6.28;5.63;;;;;;;;;;5056482;28;20060;-88
2022/12/30 07:16:28;;;;;;;3.20;3.05;;;;;;;;;;5054775;28;20049;-89
2022/12/30 07:18:56;;;;;;;4.22;4.03;;;;;;;;;;5052154;28;20052;-87
2022/12/30 07:21:22;;;;;;;6.80;4.18;;;;;;;;;;5035054;28;20050;-87
2022/12/30 07:23:49;;;;;;;4.40;4.03;;;;;;;;;;5034796;28;20095;-87
2022/12/30 07:26:15;;;;;;;0.93;0.93;;;;;;;;;;5034813;28;20053;-87
2022/12/30 07:28:42;;;;;;;6.32;5.97;;;;;;;;;;5034811;28;20053;-88
2022/12/30 07:31:08;;;;;;;6.35;3.15;;;;;;;;;;5051054;28;20053;-89
2022/12/30 07:33:35;;;;;;;2.53;1.40;;;;;;;;;;5053847;28;20106;-88
2022/12/30 07:36:02;;;;;;;2.35;2.15;;;;;;;;;;5054514;28;20099;-87
2022/12/30 07:38:30;;;;;;;5.07;4.53;;;;;;;;;;5054632;28;20052;-88
2022/12/30 07:40:57;;;;;;;3.88;3.58;;;;;;;;;;5054847;28;20098;-88
2022/12/30 07:43:23;;;;;;;2.95;2.78;;;;;;;;;;5054406;28;20103;-89
2022/12/30 07:45:49;;;;;;;4.05;3.80;;;;;;;;;;5055967;28;20422;-87
2022/12/30 07:48:16;;;;;;;3.55;3.35;;;;;;;;;;5074160;28;20094;-87
2022/12/30 07:50:42;;;;;;;2.92;2.78;;;;;;;;;;5074470;28;20068;-88
2022/12/30 07:53:10;;;;;;;3.03;2.83;;;;;;;;;;5074329;28;20048;-87
2022/12/30 07:55:38;;;;;;;5.00;4.35;;;;;;;;;;5074513;28;20094;-87
2022/12/30 07:58:05;;;;;;;5.18;4.97;;;;;;;;;;5074684;28;20048;-88
2022/12/30 08:00:31;;;;;;;2.53;2.33;;;;;;;;;;5074213;28;20102;-88
2022/12/30 08:02:58;;;;;;;5.50;5.20;;;;;;;;;;5066228;28;20045;-88
2022/12/30 08:05:24;;;;;;;8.80;7.75;;;;;;;;;;5054197;28;20041;-88
2022/12/30 08:07:52;;;;;;;6.57;4.82;;;;;;;;;;5034318;28;20103;-88
2022/12/30 08:10:20;;;;;;;7.15;6.50;;;;;;;;;;5034394;28;20057;-88
2022/12/30 08:12:46;;;;;;;14.40;11.02;;;;;;;;;;5034454;28;20108;-88
2022/12/30 08:15:13;;;;;;;9.95;6.72;;;;;;;;;;5034237;28;20099;-88
2022/12/30 08:17:40;;;;;;;9.38;6.95;;;;;;;;;;5034765;28;20045;-88
2022/12/30 08:20:09;;;;;;;7.25;6.70;;;;;;;;;;5069431;28;20093;-88
2022/12/30 08:22:35;;;;;;;10.73;9.65;;;;;;;;;;5073629;28;20057;-89
2022/12/30 08:25:02;;;;;;;6.72;6.22;;;;;;;;;;5073759;28;20436;-89
2022/12/30 08:27:29;;;;;;;7.82;7.05;;;;;;;;;;5074172;28;20052;-88
2022/12/30 08:29:56;;;;;;;8.07;7.28;;;;;;;;;;5073814;28;20049;-89
2022/12/30 08:32:22;;;;;;;3.75;2.85;;;;;;;;;;5073975;28;20177;-89
2022/12/30 08:34:49;;;;;;;7.22;6.75;;;;;;;;;;5065550;28;20110;-89
2022/12/30 08:37:15;;;;;;;9.10;8.50;;;;;;;;;;5053047;28;20572;-89
2022/12/30 08:39:42;;;;;;;14.50;12.18;;;;;;;;;;5053742;28;20645;-88
2022/12/30 08:42:09;;;;;;;5.03;4.75;;;;;;;;;;5053868;28;20045;-88
2022/12/30 08:44:36;;;;;;;7.57;6.95;;;;;;;;;;5053207;28;20045;-90
2022/12/30 08:47:03;;;;;;;6.80;6.22;;;;;;;;;;5053272;28;20800;-89
2022/12/30 08:49:30;;;;;;;9.40;7.03;;;;;;;;;;5053145;28;20544;-89
2022/12/30 08:51:56;;;;;;;5.93;5.53;;;;;;;;;;5043489;28;20049;-89
2022/12/30 08:54:23;;;;;;;7.32;6.85;;;;;;;;;;5061923;28;20049;-89
2022/12/30 08:56:49;;;;;;;6.95;6.40;;;;;;;;;;5072747;28;20094;-89
2022/12/30 08:59:16;;;;;;;6.90;6.35;;;;;;;;;;5072727;28;20090;-90
2022/12/30 09:01:44;;;;;;;5.53;5.13;;;;;;;;;;5073173;28;20052;-89
2022/12/30 09:04:11;;;;;;;5.78;5.10;;;;;;;;;;5072582;28;20094;-89
2022/12/30 09:06:38;;;;;;;4.70;4.30;;;;;;;;;;5073008;28;20049;-89
2022/12/30 09:09:06;;;;;;;7.28;4.38;;;;;;;;;;5073106;28;20044;-87
2022/12/30 09:11:33;;;;;;;12.10;5.40;;;;;;;;;;5060680;28;20506;-88
2022/12/30 09:14:01;;;;;;;5.88;5.35;;;;;;;;;;5052362;28;20045;-88
2022/12/30 09:16:28;;;;;;;7.60;6.82;;;;;;;;;;5052673;28;20457;-89
2022/12/30 09:18:56;;;;;;;5.57;5.05;;;;;;;;;;5052686;28;20053;-86
2022/12/30 09:21:23;;;;;;;6.15;5.70;;;;;;;;;;5052319;28;20053;-87
2022/12/30 09:23:49;;;;;;;6.55;6.00;;;;;;;;;;5052528;28;20467;-87
2022/12/30 09:26:17;;;;;;;6.18;5.03;;;;;;;;;;5053159;28;20091;-87
2022/12/30 09:28:43;;;;;;;7.00;6.30;;;;;;;;;;5051887;28;20052;-87
2022/12/30 09:31:10;;;;;;;9.25;5.95;;;;;;;;;;5052688;28;20048;-89
2022/12/30 09:33:36;;;;;;;7.40;6.85;;;;;;;;;;5052222;28;20498;-89
2022/12/30 09:36:06;;;;;;;5.90;5.50;;;;;;;;;;5052160;28;20045;-88
2022/12/30 09:38:33;;;;;;;11.48;9.55;;;;;;;;;;5052425;28;20102;-89
2022/12/30 09:41:02;;;;;;;6.30;5.72;;;;;;;;;;5052253;28;20494;-89
2022/12/30 09:43:31;;;;;;;8.25;7.50;;;;;;;;;;5039400;28;20163;-89
2022/12/30 09:46:16;;;;;;;11.23;10.30;;;;;;;;;;5032097;28;20105;-89
2022/12/30 09:48:44;;;;;;;10.57;9.68;;;;;;;;;;5032341;28;20100;-88
2022/12/30 09:51:13;;;;;;;10.57;8.68;;;;;;;;;;5032359;28;20045;-88
2022/12/30 09:53:42;;;;;;;13.68;9.90;;;;;;;;;;5032451;28;20046;-88
2022/12/30 09:56:13;;;;;;;16.27;14.70;;;;;;;;;;5032380;28;20096;-88
2022/12/30 09:58:39;;;;;;;9.52;8.88;;;;;;;;;;5041587;28;20049;-89
2022/12/30 10:01:13;;;;;;;6.30;5.70;;;;;;;;;;5051409;28;20095;-88
2022/12/30 10:03:40;;;;;;;8.43;7.72;;;;;;;;;;5051325;28;20049;-89
2022/12/30 10:06:11;;;;;;;6.57;5.88;;;;;;;;;;5051716;28;20048;-89
2022/12/30 10:08:46;;;;;;;14.63;8.52;;;;;;;;;;5031777;28;20049;-88
2022/12/30 10:11:26;;;;;;;6.50;6.00;;;;;;;;;;5031548;28;20553;-88
2022/12/30 10:13:57;;;;;;;12.20;7.22;;;;;;;;;;5031469;28;20136;-88
2022/12/30 10:16:33;;;;;;;10.27;7.53;;;;;;;;;;5033539;28;20099;-89
2022/12/30 10:19:05;;;;;;;7.38;6.68;;;;;;;;;;5032660;28;20458;-88
2022/12/30 10:21:38;;;;;;;11.90;9.07;;;;;;;;;;5034169;28;20103;-88
2022/12/30 10:24:12;;;;;;;10.80;7.45;;;;;;;;;;5051177;28;20102;-87
2022/12/30 10:26:42;;;;;;;10.18;7.82;;;;;;;;;;5051523;28;20128;-89
2022/12/30 10:29:13;;;;;;;5.57;4.55;;;;;;;;;;5051461;28;20136;-88
2022/12/30 10:31:39;;;;;;;5.82;5.28;;;;;;;;;;5051324;28;20049;-89
2022/12/30 10:34:11;;;;;;;6.03;5.43;;;;;;;;;;5052826;28;20044;-89
2022/12/30 10:36:40;;;;;;;8.32;6.90;;;;;;;;;;5049183;28;20049;-89
2022/12/30 10:39:15;;;;;;;7.40;6.55;;;;;;;;;;5034213;28;20560;-88
2022/12/30 10:41:46;;;;;;;5.72;5.30;;;;;;;;;;5035332;28;20095;-89
2022/12/30 10:44:16;;;;;;;11.43;5.15;;;;;;;;;;5035079;28;20049;-89
2022/12/30 10:46:50;;;;;;;4.53;4.10;;;;;;;;;;5035276;28;20488;-89
2022/12/30 10:49:24;;;;;;;5.20;4.75;;;;;;;;;;5037846;28;20510;-89
2022/12/30 10:51:50;;;;;;;5.90;5.55;;;;;;;;;;5052771;28;20056;-89
2022/12/30 10:54:18;;;;;;;6.20;5.40;;;;;;;;;;5054742;28;20040;-88
2022/12/30 10:56:45;;;;;;;3.20;2.95;;;;;;;;;;5053638;28;20053;-89
2022/12/30 10:59:13;;;;;;;5.63;5.20;;;;;;;;;;5034943;28;20053;-89
2022/12/30 11:01:40;;;;;;;5.25;4.88;;;;;;;;;;5035124;28;20045;-90
2022/12/30 11:04:07;;;;;;;5.10;4.70;;;;;;;;;;5034965;28;20385;-89
2022/12/30 11:06:35;;;;;;;3.45;3.25;;;;;;;;;;5037888;28;20057;-89
2022/12/30 11:09:22;;;;;;;5.75;5.32;;;;;;;;;;5072525;28;20494;-88
2022/12/30 11:14:45;;;;;;;5.35;4.43;;;;;;;;;;5074541;28;20560;-88
2022/12/30 11:17:20;;;;;;;5.60;5.30;;;;;;;;;;5074537;28;20056;-89
2022/12/30 11:19:49;;;;;;;7.07;6.55;;;;;;;;;;5074655;28;20083;-89
2022/12/30 11:22:16;;;;;;;5.38;5.07;;;;;;;;;;5074765;28;20052;-88
2022/12/30 11:24:47;;;;;;;2.65;2.50;;;;;;;;;;5068598;28;20057;-88
2022/12/30 11:27:13;;;;;;;5.53;5.20;;;;;;;;;;5055174;28;20099;-88
2022/12/30 11:29:40;;;;;;;4.43;4.13;;;;;;;;;;5054839;28;20048;-87
2022/12/30 11:32:10;;;;;;;7.40;6.80;;;;;;;;;;5055025;28;20049;-88
2022/12/30 11:34:38;;;;;;;2.75;2.63;;;;;;;;;;5054794;28;20507;-88
2022/12/30 11:37:23;;;;;;;6.20;5.80;;;;;;;;;;5054951;28;20111;-88
2022/12/30 11:39:51;;;;;;;5.50;4.85;;;;;;;;;;5054783;28;20049;-88
2022/12/30 11:42:28;;;;;;;5.47;4.75;;;;;;;;;;5052012;28;20049;-88
2022/12/30 11:45:12;;;;;;;2.90;2.78;;;;;;;;;;5035085;28;20045;-88
2022/12/30 11:47:43;;;;;;;4.38;4.13;;;;;;;;;;5034908;28;20057;-88
2022/12/30 11:50:15;;;;;;;4.38;4.07;;;;;;;;;;5034326;28;20049;-89
2022/12/30 11:52:41;;;;;;;5.28;4.88;;;;;;;;;;5034680;28;20114;-88
2022/12/30 11:55:19;;;;;;;4.40;4.00;;;;;;;;;;5034501;28;20045;-88
2022/12/30 11:57:48;;;;;;;4.90;4.40;;;;;;;;;;5034387;28;20486;-88
2022/12/30 12:00:27;;;;;;;5.97;4.80;;;;;;;;;;5042998;28;20052;-87
2022/12/30 12:02:56;;;;;;;3.20;3.00;;;;;;;;;;5054352;28;20521;-87
2022/12/30 12:05:27;;;;;;;3.55;3.35;;;;;;;;;;5053863;28;20461;-87
2022/12/30 12:07:55;;;;;;;4.90;4.47;;;;;;;;;;5053752;28;20502;-88
2022/12/30 12:10:24;;;;;;;3.65;3.45;;;;;;;;;;5053769;28;20418;-88
2022/12/30 12:12:54;;;;;;;6.05;5.60;;;;;;;;;;5053604;28;20045;-87
2022/12/30 12:15:25;;;;;;;5.93;5.38;;;;;;;;;;5052857;28;20053;-88
2022/12/30 12:17:54;;;;;;;2.40;2.22;;;;;;;;;;5069479;28;20049;-88
2022/12/30 12:20:25;;;;;;;5.95;5.43;;;;;;;;;;5073018;28;20056;-87
2022/12/30 12:22:57;;;;;;;2.92;2.72;;;;;;;;;;5073511;28;20110;-88
2022/12/30 12:25:27;;;;;;;5.22;4.93;;;;;;;;;;5073070;28;20052;-88
2022/12/30 12:27:54;;;;;;;3.60;3.28;;;;;;;;;;5072820;28;20437;-88
2022/12/30 12:30:21;;;;;;;5.22;4.93;;;;;;;;;;5073387;28;20512;-88
2022/12/30 12:33:01;;;;;;;5.03;4.72;;;;;;;;;;5072697;28;20109;-87
2022/12/30 12:35:31;;;;;;;8.40;4.80;;;;;;;;;;5041833;28;20107;-87
2022/12/30 12:38:03;;;;;;;4.55;4.25;;;;;;;;;;5032858;28;20507;-87
2022/12/30 12:40:45;;;;;;;3.75;3.55;;;;;;;;;;5032911;28;20491;-87
2022/12/30 12:43:16;;;;;;;5.15;4.80;;;;;;;;;;5033170;28;20057;-87
2022/12/30 12:45:50;;;;;;;4.38;4.15;;;;;;;;;;5032721;28;20049;-87
2022/12/30 12:48:32;;;;;;;3.55;3.33;;;;;;;;;;5032816;28;20053;-86
2022/12/30 12:51:06;;;;;;;4.15;3.88;;;;;;;;;;5032526;28;20061;-86
2022/12/30 12:53:43;;;;;;;2.70;2.58;;;;;;;;;;5038921;28;20084;-85
2022/12/30 12:56:39;;;;;;;3.15;2.92;;;;;;;;;;5033160;28;20045;-85
2022/12/30 12:59:18;;;;;;;5.55;5.22;;;;;;;;;;4971454;28;20046;-86
2022/12/30 13:01:49;;;;;;;3.15;2.83;;;;;;;;;;4979034;28;20114;-86
2022/12/30 13:04:20;;;;;;;4.22;3.92;;;;;;;;;;4986133;28;20046;-86
2022/12/30 13:06:52;;;;;;;4.22;3.92;;;;;;;;;;4978215;28;20050;-86
2022/12/30 13:09:39;;;;;;;5.15;3.17;;;;;;;;;;4980970;28;20053;-87
2022/12/30 13:12:10;;;;;;;4.28;3.97;;;;;;;;;;4958932;28;20043;-88
2022/12/30 13:14:41;;;;;;;3.92;3.63;;;;;;;;;;4971536;28;20046;-87
2022/12/30 13:17:12;;;;;;;4.47;4.18;;;;;;;;;;4983567;28;20105;-85
2022/12/30 13:19:41;;;;;;;2.75;2.55;;;;;;;;;;4973670;28;20125;-85
2022/12/30 13:22:11;;;;;;;3.28;3.08;;;;;;;;;;4971543;28;20058;-85
2022/12/30 13:24:41;;;;;;;5.80;3.05;;;;;;;;;;4971619;28;20501;-85
2022/12/30 13:27:13;;;;;;;3.05;2.85;;;;;;;;;;4971498;28;20437;-87
2022/12/30 13:29:41;;;;;;;4.55;4.25;;;;;;;;;;4976517;28;20445;-86
2022/12/30 13:32:10;;;;;;;5.32;4.53;;;;;;;;;;4972369;28;20051;-86
2022/12/30 13:34:39;;;;;;;4.13;3.83;;;;;;;;;;5032390;28;20076;-86
2022/12/30 13:37:09;;;;;;;5.15;4.85;;;;;;;;;;5032054;28;20123;-86
2022/12/30 13:39:39;;;;;;;3.20;3.03;;;;;;;;;;5031540;28;20487;-86
2022/12/30 13:42:21;;;;;;;4.75;3.85;;;;;;;;;;5032305;28;20096;-86
2022/12/30 13:44:48;;;;;;;4.70;4.50;;;;;;;;;;5057555;28;20049;-85
2022/12/30 13:47:28;;;;;;;3.55;3.33;;;;;;;;;;5072177;28;20501;-86
2022/12/30 13:49:55;;;;;;;6.53;5.25;;;;;;;;;;5035115;28;20103;-85
2022/12/30 13:52:23;;;;;;;4.15;3.95;;;;;;;;;;5032392;28;20083;-85
2022/12/30 13:54:50;;;;;;;4.40;3.65;;;;;;;;;;5031657;28;20049;-85
2022/12/30 13:57:28;;;;;;;3.53;3.33;;;;;;;;;;5031775;28;20053;-85
2022/12/30 14:00:08;;;;;;;5.15;4.75;;;;;;;;;;5049654;28;20114;-86
2022/12/30 14:02:56;;;;;;;5.32;5.03;;;;;;;;;;5063784;28;20052;-85
2022/12/30 14:05:46;;;;;;;3.60;3.30;;;;;;;;;;5031547;28;20042;-85
2022/12/30 14:08:21;;;;;;;3.25;3.00;;;;;;;;;;5019562;28;20049;-85
2022/12/30 14:10:53;;;;;;;3.88;3.58;;;;;;;;;;5051413;28;20049;-85
2022/12/30 14:13:32;;;;;;;3.80;3.58;;;;;;;;;;5055489;28;20057;-85
2022/12/30 14:16:02;;;;;;;5.57;5.18;;;;;;;;;;5055491;28;20526;-85
2022/12/30 14:18:34;;;;;;;4.10;3.25;;;;;;;;;;5050174;28;20107;-86
2022/12/30 14:21:01;;;;;;;3.78;3.47;;;;;;;;;;5035546;28;20049;-85
2022/12/30 14:23:35;;;;;;;2.80;2.63;;;;;;;;;;5035351;28;20446;-85
2022/12/30 14:26:17;;;;;;;4.50;4.18;;;;;;;;;;5035337;28;20480;-85
2022/12/30 14:28:44;;;;;;;3.17;2.42;;;;;;;;;;5043720;28;20131;-85
2022/12/30 14:31:22;;;;;;;3.80;3.53;;;;;;;;;;5035238;28;20063;-86
2022/12/30 14:33:49;;;;;;;4.22;3.92;;;;;;;;;;5035481;28;20065;-85
2022/12/30 14:36:18;;;;;;;3.47;3.28;;;;;;;;;;5056389;28;20441;-85
2022/12/30 14:38:46;;;;;;;2.88;2.67;;;;;;;;;;5055097;28;20056;-86
2022/12/30 14:41:14;;;;;;;4.70;4.38;;;;;;;;;;5055544;28;20053;-85
2022/12/30 14:43:43;;;;;;;2.42;2.33;;;;;;;;;;5050191;28;20045;-85
2022/12/30 14:46:28;;;;;;;3.78;3.58;;;;;;;;;;5035378;28;20045;-85
2022/12/30 14:49:03;;;;;;;4.03;3.83;;;;;;;;;;5035167;28;20050;-86
2022/12/30 14:51:30;;;;;;;2.65;2.45;;;;;;;;;;5042312;28;20048;-87
2022/12/30 14:53:56;;;;;;;4.18;3.55;;;;;;;;;;5067570;28;20049;-86
2022/12/30 14:56:24;;;;;;;3.70;3.38;;;;;;;;;;5055113;28;20052;-86
2022/12/30 14:58:50;;;;;;;4.63;3.67;;;;;;;;;;5053298;28;20497;-86
2022/12/30 15:01:19;;;;;;;3.10;2.92;;;;;;;;;;5055236;28;20045;-86
2022/12/30 15:03:45;;;;;;;2.15;2.05;;;;;;;;;;5045562;28;20111;-87
2022/12/30 15:06:14;;;;;;;4.93;4.65;;;;;;;;;;5055301;28;20078;-86
2022/12/30 15:08:41;;;;;;;2.75;2.08;;;;;;;;;;5054603;28;20052;-86
2022/12/30 15:11:09;;;;;;;2.67;2.53;;;;;;;;;;5055230;28;20417;-86
2022/12/30 15:13:38;;;;;;;2.38;2.08;;;;;;;;;;5054766;28;20709;-86
2022/12/30 15:16:06;;;;;;;3.88;3.67;;;;;;;;;;5057278;28;20049;-86
2022/12/30 15:18:35;;;;;;;2.70;2.50;;;;;;;;;;5051986;28;20053;-86
2022/12/30 15:21:19;;;;;;;3.15;2.95;;;;;;;;;;5034741;28;20534;-86
2022/12/30 15:23:46;;;;;;;2.50;2.38;;;;;;;;;;5034729;28;20146;-85
2022/12/30 15:26:15;;;;;;;3.15;2.53;;;;;;;;;;5034508;28;20088;-86
2022/12/30 15:28:41;;;;;;;2.65;2.45;;;;;;;;;;5034797;28;20579;-86
2022/12/30 15:31:16;;;;;;;3.90;3.70;;;;;;;;;;5040788;28;20045;-87
2022/12/30 15:33:52;;;;;;;3.80;3.58;;;;;;;;;;5034148;28;20053;-86
2022/12/30 15:36:21;;;;;;;2.05;1.95;;;;;;;;;;5034430;28;20095;-86
2022/12/30 15:38:48;;;;;;;2.50;2.30;;;;;;;;;;5034719;28;20123;-86
2022/12/30 15:41:17;;;;;;;2.22;2.13;;;;;;;;;;5034416;28;20061;-87
2022/12/30 15:43:43;;;;;;;3.30;3.10;;;;;;;;;;5034479;28;20049;-86
2022/12/30 15:46:21;;;;;;;3.33;3.17;;;;;;;;;;5034381;28;20118;-86
2022/12/30 15:48:48;;;;;;;2.80;2.60;;;;;;;;;;5046438;28;20079;-86
2022/12/30 15:51:16;;;;;;;3.80;3.50;;;;;;;;;;5033617;28;20450;-86